Kezdőlap
METAR-TAF:

METAR-TAF

Repülőterek :

Middleton Island, Alaszka, Amerikai Egyesült Államok

földrajzi szélesség: 59-26N, földrajzi hosszúság: 146-18W, magasság: 27 m

Jelenlegi meteorológiai megfigyelések

A jelentés 30 perccel ezelõtt készült, 01:51 UTC
Keleti szél 31 kt széllökések: 36 kt
Hőmérséklet 4°C
Páratartalom 87%
Légköri nyomás 1016 hPa
Látótávolság: 16.1 km
Szakadozott felhőzet 1100 lábon
Borult 1800 lábon
enyhe esõ

METAR: PAMD 250151Z AUTO 10031G36KT 10SM -RA BKN011 OVC018 04/02 A3001 RMK AO2 PK WND 10036/0149 SLP151 P0002 T00390022

Idő: 18:21 (02:21 UTC)


TAF: hiányzik

Meteorológiai megfigyelések és előrejelzések több, mint 4000 repülőtéren (METAR és TAF jelentéseket).

A térképen piros és sárga pontok jelzik az elérhető meteorológiai állomásokat.

Mozgassa az egeret a pont fölött, hogy megjelenjen az állomás neve.

Azután kattintson az időjárási megfigyelések és előrejelzések megtekintéséhez.

A térkép megváltoztatása: kattintson a fekete keresztel jelölt zöld gombra ráközelítéshez, a vonallal jelölt zöld gombra távolításhoz, vagy a zöld nyilakra a szomszédos térképek eléréséhez.


METAR-TAF: